Wetterdaten: Woche 25.11.02 - 01.12.02 (KW48)
Datum Zeit Temperatur Luftfeuchte Luftdruck Regenmenge Wind Richtung Taupunkt Windchill
25.11.2002 00:00 5.7 C 81 % 1001.8 hPa 0.0 l/m 7.1 km/h (2 Bft) O-SO 2.7 C 4.3 C
25.11.2002 01:00 5.4 C 83 % 1000.9 hPa 0.0 l/m 1.7 km/h (1 Bft) O 2.8 C 5.2 C
25.11.2002 02:00 4.7 C 88 % 1000.5 hPa 0.0 l/m 2.2 km/h (1 Bft) O-SO 2.9 C 4.2 C
25.11.2002 03:00 3.8 C 93 % 1000.4 hPa 0.0 l/m 0.0 km/h (0 Bft) N 2.8 C 3.8 C
25.11.2002 04:00 3.1 C 97 % 1000.4 hPa 0.0 l/m 0.3 km/h (0 Bft) O 2.7 C 3.1 C
25.11.2002 05:00 3.0 C 99 % 1000.7 hPa 0.0 l/m 4.8 km/h (1 Bft) O-SO 2.9 C 1.7 C
25.11.2002 06:00 3.0 C 100 % 1001.1 hPa 0.0 l/m 2.6 km/h (1 Bft) O-SO 2.9 C 2.3 C
25.11.2002 07:00 2.8 C 100 % 1001.4 hPa 0.0 l/m 1.5 km/h (1 Bft) O-SO 2.7 C 2.4 C
25.11.2002 08:00 3.0 C 100 % 1002.2 hPa 0.0 l/m 2.9 km/h (1 Bft) O-SO 3.0 C 2.3 C
25.11.2002 09:00 4.3 C 100 % 1003.4 hPa 0.0 l/m 1.4 km/h (1 Bft) O-SO 4.3 C 4.2 C
25.11.2002 10:00 5.1 C 99 % 1004.1 hPa 0.0 l/m 0.2 km/h (0 Bft) W-NW 4.8 C 5.1 C
25.11.2002 11:00 5.8 C 94 % 1004.5 hPa 0.0 l/m 0.1 km/h (0 Bft) N 4.9 C 5.8 C
25.11.2002 12:00 6.0 C 91 % 1005.5 hPa 0.0 l/m 0.1 km/h (0 Bft) N 4.7 C 6.0 C
25.11.2002 13:00 6.1 C 92 % 1005.3 hPa 0.0 l/m 0.0 km/h (0 Bft) N 4.9 C 6.1 C
25.11.2002 14:00 6.3 C 91 % 1005.6 hPa 0.0 l/m 0.0 km/h (0 Bft) N 5.0 C 6.3 C
25.11.2002 15:00 6.3 C 92 % 1006.2 hPa 0.0 l/m 3.4 km/h (1 Bft) O-SO 5.1 C 5.7 C
25.11.2002 16:00 6.1 C 93 % 1006.6 hPa 0.0 l/m 1.6 km/h (1 Bft) O-SO 5.1 C 5.8 C
25.11.2002 17:00 6.0 C 97 % 1006.6 hPa 0.6 l/m 0.0 km/h (0 Bft) O-SO 5.6 C 6.0 C
25.11.2002 18:00 5.8 C 100 % 1007.2 hPa 0.0 l/m 0.5 km/h (0 Bft) O-SO 5.8 C 5.8 C
25.11.2002 19:00 5.8 C 100 % 1007.7 hPa 0.0 l/m 0.0 km/h (0 Bft) N 5.8 C 5.8 C
25.11.2002 20:00 5.7 C 100 % 1008.1 hPa 0.0 l/m 0.7 km/h (0 Bft) O-SO 5.7 C 5.6 C
25.11.2002 21:00 5.8 C 100 % 1008.7 hPa 0.0 l/m 2.5 km/h (1 Bft) O-SO 5.8 C 5.5 C
25.11.2002 22:00 5.7 C 100 % 1008.9 hPa 0.0 l/m 3.3 km/h (1 Bft) O-SO 5.7 C 5.2 C
25.11.2002 23:00 5.8 C 100 % 1009.7 hPa 0.0 l/m 3.3 km/h (1 Bft) O-SO 5.8 C 5.3 C
26.11.2002 00:00 6.0 C 100 % 1009.7 hPa 0.0 l/m 2.0 km/h (1 Bft) O 6.0 C 5.7 C
26.11.2002 01:00 5.9 C 100 % 1009.7 hPa 0.0 l/m 0.0 km/h (0 Bft) N 5.9 C 5.9 C
26.11.2002 02:00 5.9 C 100 % 1009.7 hPa 0.9 l/m 0.0 km/h (0 Bft) N 5.9 C 5.9 C
26.11.2002 03:00 5.8 C 100 % 1009.7 hPa 1.8 l/m 0.0 km/h (0 Bft) N 5.8 C 5.8 C
26.11.2002 04:00 5.6 C 100 % 1010.1 hPa 1.2 l/m 0.0 km/h (0 Bft) N 5.6 C 5.6 C
26.11.2002 05:00 5.8 C 100 % 1010.8 hPa 0.9 l/m 0.3 km/h (0 Bft) O-SO 5.8 C 5.7 C
26.11.2002 06:00 5.7 C 100 % 1010.8 hPa 0.3 l/m 0.3 km/h (0 Bft) O-SO 5.7 C 5.7 C
26.11.2002 07:00 5.8 C 100 % 1011.3 hPa 0.3 l/m 0.3 km/h (0 Bft) O-SO 5.8 C 5.8 C
26.11.2002 08:00 6.0 C 100 % 1011.8 hPa 0.3 l/m 3.2 km/h (1 Bft) O-SO 6.0 C 5.7 C
26.11.2002 09:00 6.3 C 100 % 1012.5 hPa 0.0 l/m 2.0 km/h (1 Bft) O-SO 6.3 C 6.2 C
26.11.2002 10:00 6.8 C 100 % 1012.8 hPa 0.3 l/m 0.0 km/h (0 Bft) N 6.8 C 6.8 C
26.11.2002 11:00 7.1 C 100 % 1012.8 hPa 0.3 l/m 0.0 km/h (0 Bft) N 7.1 C 7.1 C
26.11.2002 12:00 7.4 C 98 % 1012.8 hPa 0.3 l/m 0.0 km/h (0 Bft) N 7.1 C 7.4 C
26.11.2002 13:00 7.4 C 95 % 1012.8 hPa 0.3 l/m 0.0 km/h (0 Bft) N 6.7 C 7.4 C
26.11.2002 14:00 7.5 C 96 % 1012.8 hPa 0.3 l/m 0.0 km/h (0 Bft) N 6.9 C 7.5 C
26.11.2002 15:00 7.5 C 95 % 1013.2 hPa 0.0 l/m 0.0 km/h (0 Bft) N 6.8 C 7.5 C
26.11.2002 16:00 7.2 C 97 % 1013.9 hPa 0.0 l/m 0.0 km/h (0 Bft) N 6.8 C 7.2 C
26.11.2002 17:00 6.8 C 100 % 1013.9 hPa 0.0 l/m 0.0 km/h (0 Bft) N 6.8 C 6.8 C
26.11.2002 18:00 6.9 C 100 % 1014.4 hPa 0.3 l/m 0.0 km/h (0 Bft) N 6.9 C 6.9 C
26.11.2002 19:00 6.8 C 100 % 1014.9 hPa 0.0 l/m 0.0 km/h (0 Bft) N 6.8 C 6.8 C
26.11.2002 20:00 6.9 C 100 % 1014.9 hPa 0.0 l/m 0.0 km/h (0 Bft) N 6.9 C 6.9 C
26.11.2002 21:00 6.7 C 100 % 1014.9 hPa 0.0 l/m 0.0 km/h (0 Bft) N 6.7 C 6.7 C
26.11.2002 22:00 6.7 C 100 % 1014.9 hPa 0.0 l/m 0.0 km/h (0 Bft) N 6.7 C 6.7 C
26.11.2002 23:00 6.6 C 100 % 1014.9 hPa 0.0 l/m 0.0 km/h (0 Bft) N 6.6 C 6.6 C
27.11.2002 00:00 6.6 C 100 % 1014.9 hPa 0.3 l/m 0.0 km/h (0 Bft) N 6.6 C 6.6 C
27.11.2002 01:00 6.6 C 100 % 1014.9 hPa 0.6 l/m 0.0 km/h (0 Bft) N 6.6 C 6.6 C
27.11.2002 02:00 6.6 C 100 % 1014.9 hPa 0.9 l/m 0.0 km/h (0 Bft) N 6.6 C 6.6 C
27.11.2002 03:00 6.4 C 100 % 1014.9 hPa 0.0 l/m 0.0 km/h (0 Bft) N 6.4 C 6.4 C
27.11.2002 04:00 6.5 C 100 % 1014.9 hPa 0.0 l/m 0.0 km/h (0 Bft) N 6.5 C 6.5 C
27.11.2002 05:00 6.3 C 100 % 1014.9 hPa 0.0 l/m 0.0 km/h (0 Bft) N 6.3 C 6.3 C
27.11.2002 06:00 6.3 C 100 % 1014.9 hPa 0.0 l/m 0.0 km/h (0 Bft) N 6.3 C 6.3 C
27.11.2002 07:00 6.4 C 100 % 1014.9 hPa 0.0 l/m 0.0 km/h (0 Bft) N 6.4 C 6.4 C
27.11.2002 08:00 6.6 C 100 % 1015.5 hPa 0.0 l/m 0.0 km/h (0 Bft) N 6.6 C 6.6 C
27.11.2002 09:00 7.0 C 100 % 1015.9 hPa 0.0 l/m 0.0 km/h (0 Bft) N 7.0 C 7.0 C
27.11.2002 10:00 7.5 C 100 % 1015.9 hPa 0.0 l/m 0.0 km/h (0 Bft) N 7.5 C 7.5 C
27.11.2002 11:00 7.9 C 100 % 1015.8 hPa 0.0 l/m 0.0 km/h (0 Bft) N 7.9 C 7.9 C
27.11.2002 12:00 8.4 C 93 % 1014.9 hPa 0.0 l/m 0.0 km/h (0 Bft) N 7.4 C 8.4 C
27.11.2002 13:00 8.7 C 89 % 1014.9 hPa 0.0 l/m 0.0 km/h (0 Bft) O-SO 6.9 C 8.7 C
27.11.2002 14:00 8.5 C 86 % 1014.9 hPa 0.0 l/m 3.9 km/h (1 Bft) O-SO 6.3 C 8.1 C
27.11.2002 15:00 8.3 C 87 % 1014.9 hPa 0.0 l/m 2.6 km/h (1 Bft) O-SO 6.2 C 7.9 C
27.11.2002 16:00 8.1 C 87 % 1014.9 hPa 0.0 l/m 2.0 km/h (1 Bft) O-SO 6.0 C 7.9 C
27.11.2002 17:00 7.9 C 88 % 1015.4 hPa 0.0 l/m 1.6 km/h (1 Bft) O-SO 6.1 C 7.8 C
27.11.2002 18:00 7.8 C 89 % 1015.9 hPa 0.0 l/m 0.9 km/h (0 Bft) O-SO 6.2 C 7.7 C
27.11.2002 19:00 7.7 C 90 % 1015.9 hPa 0.0 l/m 2.1 km/h (1 Bft) O-SO 6.1 C 7.5 C
27.11.2002 20:00 7.6 C 89 % 1015.9 hPa 0.0 l/m 0.5 km/h (0 Bft) O-SO 5.9 C 7.6 C
27.11.2002 21:00 7.4 C 90 % 1015.9 hPa 0.0 l/m 0.0 km/h (0 Bft) SO 5.9 C 7.4 C
27.11.2002 22:00 7.1 C 92 % 1015.9 hPa 0.0 l/m 0.7 km/h (0 Bft) W 5.9 C 7.0 C
27.11.2002 23:00 6.7 C 93 % 1015.9 hPa 0.0 l/m 0.2 km/h (0 Bft) N 5.6 C 6.7 C
28.11.2002 00:00 6.4 C 93 % 1015.9 hPa 0.0 l/m 0.3 km/h (0 Bft) O-SO 5.3 C 6.4 C
28.11.2002 01:00 6.3 C 91 % 1015.9 hPa 0.0 l/m 7.9 km/h (2 Bft) O-SO 5.0 C 4.8 C
28.11.2002 02:00 6.2 C 91 % 1015.9 hPa 0.0 l/m 8.8 km/h (2 Bft) O-SO 4.8 C 4.4 C
28.11.2002 03:00 6.0 C 92 % 1015.9 hPa 0.0 l/m 4.7 km/h (1 Bft) O-SO 4.8 C 5.2 C
28.11.2002 04:00 6.0 C 92 % 1015.3 hPa 0.0 l/m 0.6 km/h (0 Bft) O-SO 4.8 C 6.0 C
28.11.2002 05:00 5.9 C 93 % 1014.9 hPa 0.0 l/m 1.9 km/h (1 Bft) O-SO 4.8 C 5.6 C
28.11.2002 06:00 5.7 C 93 % 1014.9 hPa 0.0 l/m 0.4 km/h (0 Bft) O-SO 4.7 C 5.7 C
28.11.2002 07:00 5.7 C 94 % 1014.9 hPa 0.0 l/m 0.0 km/h (0 Bft) N 4.8 C 5.7 C
28.11.2002 08:00 5.7 C 96 % 1014.9 hPa 0.0 l/m 0.1 km/h (0 Bft) N 5.1 C 5.7 C
28.11.2002 09:00 5.8 C 95 % 1015.7 hPa 0.0 l/m 0.1 km/h (0 Bft) N 5.1 C 5.8 C
28.11.2002 10:00 6.1 C 91 % 1015.9 hPa 0.0 l/m 0.7 km/h (0 Bft) O-SO 4.8 C 6.0 C
28.11.2002 11:00 6.7 C 87 % 1015.8 hPa 0.0 l/m 0.0 km/h (0 Bft) N 4.8 C 6.7 C
28.11.2002 12:00 7.0 C 88 % 1015.0 hPa 0.0 l/m 4.3 km/h (1 Bft) O-SO 5.1 C 6.3 C
28.11.2002 13:00 7.2 C 87 % 1014.9 hPa 0.0 l/m 4.9 km/h (1 Bft) O-SO 5.2 C 6.3 C
28.11.2002 14:00 6.8 C 88 % 1014.9 hPa 0.0 l/m 3.0 km/h (1 Bft) O-SO 5.0 C 6.4 C
28.11.2002 15:00 6.6 C 89 % 1014.0 hPa 0.0 l/m 7.1 km/h (2 Bft) O-SO 5.0 C 5.4 C
28.11.2002 16:00 6.5 C 90 % 1013.9 hPa 0.0 l/m 4.9 km/h (1 Bft) O-SO 5.1 C 5.7 C
28.11.2002 17:00 6.7 C 90 % 1013.9 hPa 0.0 l/m 2.7 km/h (1 Bft) O-SO 5.2 C 6.2 C
28.11.2002 18:00 6.5 C 91 % 1014.1 hPa 0.0 l/m 0.6 km/h (0 Bft) O-SO 5.1 C 6.4 C
28.11.2002 19:00 6.4 C 92 % 1013.9 hPa 0.0 l/m 3.4 km/h (1 Bft) O-SO 5.2 C 5.8 C
28.11.2002 20:00 6.3 C 93 % 1013.9 hPa 0.0 l/m 3.2 km/h (1 Bft) O-SO 5.2 C 5.7 C
28.11.2002 21:00 6.2 C 94 % 1014.3 hPa 0.0 l/m 0.0 km/h (0 Bft) N 5.3 C 6.2 C
28.11.2002 22:00 6.2 C 94 % 1014.9 hPa 0.0 l/m 0.4 km/h (0 Bft) SO 5.4 C 6.2 C
28.11.2002 23:00 6.1 C 96 % 1013.9 hPa 0.0 l/m 0.6 km/h (0 Bft) O-SO 5.5 C 6.0 C
29.11.2002 00:00 6.0 C 98 % 1014.1 hPa 0.6 l/m 0.0 km/h (0 Bft) N 5.7 C 6.0 C
29.11.2002 01:00 6.1 C 99 % 1014.6 hPa 0.0 l/m 0.0 km/h (0 Bft) N 5.9 C 6.1 C
29.11.2002 02:00 6.2 C 99 % 1014.5 hPa 0.3 l/m 0.1 km/h (0 Bft) W-SW 6.1 C 6.2 C
29.11.2002 03:00 6.3 C 99 % 1013.9 hPa 0.0 l/m 1.5 km/h (1 Bft) O-SO 6.2 C 6.1 C
29.11.2002 04:00 6.6 C 99 % 1013.9 hPa 0.0 l/m 1.1 km/h (0 Bft) O-SO 6.5 C 6.6 C
29.11.2002 05:00 6.6 C 99 % 1013.9 hPa 0.0 l/m 0.4 km/h (0 Bft) O-SO 6.5 C 6.6 C
29.11.2002 06:00 6.5 C 100 % 1013.9 hPa 0.3 l/m 0.0 km/h (0 Bft) N 6.5 C 6.5 C
29.11.2002 07:00 6.5 C 100 % 1013.9 hPa 0.6 l/m 0.0 km/h (0 Bft) N 6.5 C 6.5 C
29.11.2002 08:00 6.4 C 100 % 1014.7 hPa 0.0 l/m 0.0 km/h (0 Bft) N 6.4 C 6.4 C
29.11.2002 09:00 6.7 C 100 % 1014.9 hPa 0.0 l/m 0.3 km/h (0 Bft) N 6.7 C 6.7 C
29.11.2002 10:00 7.6 C 96 % 1014.9 hPa 0.0 l/m 0.9 km/h (0 Bft) O-SO 6.9 C 7.5 C
29.11.2002 11:00 8.1 C 88 % 1014.7 hPa 0.0 l/m 2.9 km/h (1 Bft) SO 6.3 C 7.8 C
29.11.2002 12:00 8.5 C 84 % 1014.6 hPa 0.0 l/m 2.1 km/h (1 Bft) SO 6.0 C 8.3 C
29.11.2002 13:00 8.7 C 81 % 1014.3 hPa 0.0 l/m 1.3 km/h (1 Bft) SO 5.7 C 8.6 C
29.11.2002 14:00 8.2 C 82 % 1014.3 hPa 1.2 l/m 0.2 km/h (0 Bft) SW 5.3 C 8.2 C
29.11.2002 15:00 7.5 C 90 % 1013.9 hPa 0.0 l/m 2.3 km/h (1 Bft) O-SO 5.9 C 7.4 C
29.11.2002 16:00 6.8 C 93 % 1014.2 hPa 0.0 l/m 0.6 km/h (0 Bft) O-SO 5.7 C 6.8 C
29.11.2002 17:00 6.0 C 95 % 1014.4 hPa 0.0 l/m 1.7 km/h (1 Bft) O-SO 5.3 C 5.9 C
29.11.2002 18:00 5.0 C 98 % 1014.9 hPa 0.0 l/m 0.4 km/h (0 Bft) O-SO 4.7 C 5.0 C
29.11.2002 19:00 4.1 C 99 % 1014.9 hPa 0.0 l/m 0.7 km/h (0 Bft) O-SO 3.9 C 4.0 C
29.11.2002 20:00 3.8 C 100 % 1014.9 hPa 0.0 l/m 0.0 km/h (0 Bft) N 3.8 C 3.8 C
29.11.2002 21:00 3.5 C 100 % 1014.9 hPa 0.0 l/m 0.8 km/h (0 Bft) O-SO 3.5 C 3.5 C
29.11.2002 22:00 3.6 C 100 % 1015.3 hPa 0.0 l/m 2.9 km/h (1 Bft) O-SO 3.6 C 3.1 C
29.11.2002 23:00 3.8 C 100 % 1015.9 hPa 0.0 l/m 1.0 km/h (0 Bft) O-SO 3.8 C 3.8 C
30.11.2002 00:00 4.1 C 100 % 1015.9 hPa 0.0 l/m 0.9 km/h (0 Bft) O-SO 4.1 C 3.9 C
30.11.2002 01:00 4.3 C 100 % 1015.9 hPa 0.0 l/m 1.2 km/h (1 Bft) O-SO 4.3 C 4.1 C
30.11.2002 02:00 4.2 C 100 % 1016.0 hPa 0.0 l/m 2.6 km/h (1 Bft) O-SO 4.2 C 3.9 C
30.11.2002 03:00 3.9 C 100 % 1017.0 hPa 0.0 l/m 1.9 km/h (1 Bft) O-SO 3.9 C 3.5 C
30.11.2002 04:00 4.0 C 100 % 1017.0 hPa 0.0 l/m 0.0 km/h (0 Bft) N 4.0 C 4.0 C
30.11.2002 05:00 4.3 C 100 % 1017.1 hPa 0.3 l/m 0.0 km/h (0 Bft) N 4.3 C 4.3 C
30.11.2002 06:00 4.4 C 100 % 1017.8 hPa 0.0 l/m 0.0 km/h (0 Bft) N 4.4 C 4.4 C
30.11.2002 07:00 4.3 C 100 % 1018.2 hPa 0.0 l/m 0.0 km/h (0 Bft) N 4.3 C 4.3 C
30.11.2002 08:00 4.6 C 100 % 1019.0 hPa 0.3 l/m 1.0 km/h (0 Bft) O-SO 4.6 C 4.6 C
30.11.2002 09:00 5.4 C 100 % 1019.1 hPa 0.3 l/m 0.7 km/h (0 Bft) O-SO 5.4 C 5.3 C
30.11.2002 10:00 5.9 C 100 % 1020.1 hPa 0.0 l/m 0.7 km/h (0 Bft) O-SO 5.9 C 5.9 C
30.11.2002 11:00 7.3 C 100 % 1020.1 hPa 0.0 l/m 1.2 km/h (1 Bft) SO 7.3 C 7.2 C
30.11.2002 12:00 7.3 C 91 % 1020.1 hPa 1.2 l/m 0.9 km/h (0 Bft) W 5.9 C 7.2 C
30.11.2002 13:00 6.7 C 93 % 1020.1 hPa 0.9 l/m 0.9 km/h (0 Bft) O-SO 5.7 C 6.6 C
30.11.2002 14:00 7.0 C 93 % 1020.1 hPa 0.0 l/m 1.1 km/h (0 Bft) O-SO 6.0 C 6.8 C
30.11.2002 15:00 6.8 C 89 % 1020.9 hPa 0.0 l/m 0.5 km/h (0 Bft) W-NW 5.1 C 6.8 C
30.11.2002 16:00 5.8 C 90 % 1021.1 hPa 0.0 l/m 0.3 km/h (0 Bft) N 4.2 C 5.8 C
30.11.2002 17:00 4.2 C 93 % 1021.1 hPa 0.0 l/m 1.1 km/h (0 Bft) O-SO 3.2 C 4.1 C
30.11.2002 18:00 3.0 C 96 % 1021.3 hPa 0.0 l/m 2.3 km/h (1 Bft) O-SO 2.5 C 2.6 C
30.11.2002 19:00 3.4 C 100 % 1022.2 hPa 0.0 l/m 3.0 km/h (1 Bft) O-SO 3.3 C 2.7 C
30.11.2002 20:00 3.6 C 100 % 1022.6 hPa 0.0 l/m 0.4 km/h (0 Bft) O-SO 3.6 C 3.6 C
30.11.2002 21:00 3.9 C 100 % 1023.2 hPa 0.6 l/m 2.7 km/h (1 Bft) O-SO 3.9 C 3.2 C
30.11.2002 22:00 4.0 C 100 % 1022.5 hPa 0.0 l/m 2.0 km/h (1 Bft) O-SO 4.0 C 3.8 C
30.11.2002 23:00 4.0 C 100 % 1022.2 hPa 0.0 l/m 0.7 km/h (0 Bft) O-SO 4.0 C 3.9 C
01.12.2002 00:00 4.0 C 100 % 1022.2 hPa 0.0 l/m 1.8 km/h (1 Bft) O-SO 4.0 C 4.0 C
01.12.2002 01:00 4.0 C 99 % 1022.2 hPa 0.0 l/m 1.8 km/h (1 Bft) SO 3.9 C 3.6 C
01.12.2002 02:00 4.0 C 98 % 1021.6 hPa 0.0 l/m 1.5 km/h (1 Bft) O-SO 3.8 C 4.0 C
01.12.2002 03:00 3.8 C 99 % 1021.1 hPa 0.0 l/m 0.1 km/h (0 Bft) N 3.7 C 3.8 C
01.12.2002 04:00 3.6 C 99 % 1020.1 hPa 0.0 l/m 0.7 km/h (0 Bft) O-SO 3.5 C 3.6 C
01.12.2002 05:00 3.5 C 99 % 1020.0 hPa 0.0 l/m 6.2 km/h (2 Bft) O-SO 3.4 C 2.0 C
01.12.2002 06:00 3.5 C 99 % 1019.0 hPa 0.0 l/m 2.6 km/h (1 Bft) O-SO 3.4 C 3.1 C
01.12.2002 07:00 3.5 C 99 % 1019.0 hPa 0.0 l/m 3.0 km/h (1 Bft) O-SO 3.3 C 2.9 C
01.12.2002 08:00 3.6 C 97 % 1018.3 hPa 0.0 l/m 2.6 km/h (1 Bft) O-SO 3.2 C 3.0 C
01.12.2002 09:00 3.6 C 94 % 1018.0 hPa 0.0 l/m 0.5 km/h (0 Bft) O-SO 2.8 C 3.6 C
01.12.2002 10:00 3.7 C 94 % 1017.0 hPa 0.0 l/m 0.6 km/h (0 Bft) SW 2.7 C 3.6 C
01.12.2002 11:00 3.9 C 92 % 1016.0 hPa 0.0 l/m 0.6 km/h (0 Bft) O-SO 2.7 C 3.7 C
01.12.2002 12:00 4.3 C 90 % 1014.6 hPa 0.0 l/m 1.3 km/h (1 Bft) W-NW 2.8 C 4.1 C
01.12.2002 13:00 4.5 C 85 % 1013.5 hPa 0.0 l/m 0.3 km/h (0 Bft) W-NW 2.2 C 4.5 C
01.12.2002 14:00 4.7 C 82 % 1012.3 hPa 0.0 l/m 1.6 km/h (1 Bft) W-NW 1.9 C 4.4 C
01.12.2002 15:00 4.5 C 83 % 1011.8 hPa 0.0 l/m 1.0 km/h (0 Bft) W 1.8 C 4.4 C
01.12.2002 16:00 3.5 C 85 % 1010.8 hPa 0.0 l/m 2.3 km/h (1 Bft) O-SO 1.2 C 3.0 C
01.12.2002 17:00 3.0 C 87 % 1010.6 hPa 0.0 l/m 0.5 km/h (0 Bft) O-SO 1.0 C 2.9 C
01.12.2002 18:00 2.1 C 90 % 1009.7 hPa 0.0 l/m 3.3 km/h (1 Bft) O-SO 0.7 C 1.4 C
01.12.2002 19:00 2.1 C 91 % 1009.2 hPa 0.0 l/m 0.0 km/h (0 Bft) N 0.9 C 2.1 C
01.12.2002 20:00 1.9 C 94 % 1008.6 hPa 0.0 l/m 0.0 km/h (0 Bft) N 1.2 C 1.9 C
01.12.2002 21:00 2.1 C 94 % 1007.7 hPa 0.0 l/m 1.3 km/h (1 Bft) O-SO 1.1 C 1.9 C
01.12.2002 22:00 2.3 C 94 % 1006.8 hPa 0.3 l/m 0.0 km/h (0 Bft) O-SO 1.4 C 2.3 C
01.12.2002 23:00 2.4 C 95 % 1006.5 hPa 1.8 l/m 1.8 km/h (1 Bft) O-SO 1.7 C 2.2 C
Min-Datum _ 01.12.02 29.11.02 25.11.02 - 25.11.02 - 01.12.02 25.11.02
_ Min-Zeit 20:05 14:03 00:53 - 00:20 - 18:47 05:08
Minimum _ 1.8 C 78 % 1000.4 hPa - 0.0 km/h (0 Bft) - 0.4 C -0.5 C
Max-Datum _ 29.11.02 25.11.02 30.11.02 26.11.02 25.11.02 - 27.11.02 29.11.02
_ Max-Zeit 13:27 05:47 20:37 02:00 00:08 - 11:43 13:27
Maximum _ 8.9 C 100 % 1023.2 hPa 1.8 l/m 19.8 km/h
O-SO (3 Bft)
- 8.3 C 8.9 C
Durchschnitt _ 5.7 C 95 % 1013.7 hPa #18.6 l/m 1.2 km/h (1 Bft) O-SO 5.0 C 5.5 C

Durchschnitt Minimum Temp.5.4 C
Durchschnitt Maximum Temp.5.9 C
© Kaiko 2002